createdAt,value
2023-01-21T00:01:59.264Z,97436.34
2023-01-21T00:07:01.358Z,97434.91
2023-01-21T00:12:03.209Z,97440.28
2023-01-21T00:17:05.166Z,97444.78
2023-01-21T00:22:07.203Z,97447.66
2023-01-21T00:27:09.017Z,97440.59
2023-01-21T00:32:10.874Z,97439.06
2023-01-21T00:37:12.497Z,97438.88
2023-01-21T00:42:14.235Z,97441.34
2023-01-21T00:47:15.937Z,97446.53
2023-01-21T00:52:17.668Z,97447.53
2023-01-21T00:57:19.420Z,97454.44
2023-01-21T01:02:21.292Z,97455.56
2023-01-21T01:07:23.064Z,97455.66
2023-01-21T01:12:24.807Z,97461.03
2023-01-21T01:17:26.407Z,97466.81
2023-01-21T01:22:28.578Z,97465.13
2023-01-21T01:27:30.815Z,97480.09
2023-01-21T01:32:32.472Z,97481.06
2023-01-21T01:37:34.130Z,97472.66
2023-01-21T01:42:36.057Z,97485.22
2023-01-21T01:47:43.533Z,97478.13
2023-01-21T01:52:46.408Z,97470.81
2023-01-21T01:57:52.304Z,97476.66
2023-01-21T02:03:13.362Z,97474.44
2023-01-21T02:08:16.302Z,97471.22
2023-01-21T02:13:18.208Z,97479.09
2023-01-21T02:18:34.713Z,97475.34
2023-01-21T02:24:07.440Z,97484.03
2023-01-21T02:29:40.050Z,97477.69
2023-01-21T02:34:45.151Z,97483.41
2023-01-21T02:40:13.055Z,97487.13
2023-01-21T02:45:24.485Z,97488.19
2023-01-21T02:50:30.326Z,97486.78
2023-01-21T02:55:37.933Z,97493.78
2023-01-21T03:01:00.211Z,97493.94
2023-01-21T03:06:07.979Z,97492.72
2023-01-21T03:11:21.180Z,97494.13
2023-01-21T03:16:49.771Z,97494.63
2023-01-21T03:21:53.654Z,97492.31
2023-01-21T03:26:58.939Z,97491.63
2023-01-21T03:32:06.124Z,97482.84
2023-01-21T03:37:17.861Z,97495.88
2023-01-21T03:42:20.009Z,97484.53
2023-01-21T03:47:32.584Z,97481.19
2023-01-21T03:52:34.411Z,97491.50
2023-01-21T03:57:36.291Z,97478.88
2023-01-21T04:02:37.990Z,97477.72
2023-01-21T04:07:39.833Z,97480.91
2023-01-21T04:12:41.531Z,97472.22
2023-01-21T04:17:44.145Z,97487.44
2023-01-21T04:22:45.815Z,97477.53
2023-01-21T04:27:47.470Z,97477.53
2023-01-21T04:32:49.137Z,97494.66
2023-01-21T04:37:50.821Z,97493.19
2023-01-21T04:42:52.544Z,97487.66
2023-01-21T04:47:54.281Z,97487.72
2023-01-21T04:52:56.122Z,97490.84
2023-01-21T04:57:58.057Z,97500.66
2023-01-21T05:02:59.740Z,97494.66
2023-01-21T05:08:01.426Z,97493.31
2023-01-21T05:13:03.278Z,97497.66
2023-01-21T05:18:05.024Z,97493.56
2023-01-21T05:23:06.782Z,97508.47
2023-01-21T05:28:08.519Z,97495.28
2023-01-21T05:33:10.174Z,97498.56
2023-01-21T05:38:11.941Z,97497.34
2023-01-21T05:43:14.342Z,97501.69
2023-01-21T05:48:16.086Z,97511.34
2023-01-21T05:53:19.451Z,97508.09
2023-01-21T05:58:22.202Z,97505.13
2023-01-21T06:03:24.571Z,97502.22
2023-01-21T06:08:26.330Z,97505.00
2023-01-21T06:13:28.179Z,97519.09
2023-01-21T06:18:29.956Z,97507.59
2023-01-21T06:23:31.824Z,97515.50
2023-01-21T06:28:33.521Z,97516.81
2023-01-21T06:33:35.172Z,97518.38
2023-01-21T06:38:37.377Z,97514.88
2023-01-21T06:43:39.145Z,97514.22
2023-01-21T06:48:42.711Z,97519.72
2023-01-21T06:53:44.464Z,97516.44
2023-01-21T06:58:46.297Z,97526.91
2023-01-21T07:03:48.000Z,97529.31
2023-01-21T07:08:49.666Z,97530.81
2023-01-21T07:13:51.310Z,97526.53
2023-01-21T07:18:53.059Z,97529.47
2023-01-21T07:23:55.405Z,97534.28
2023-01-21T07:28:57.139Z,97548.88
2023-01-21T07:33:59.421Z,97543.63
2023-01-21T07:39:01.222Z,97550.16
2023-01-21T07:44:03.424Z,97557.13
2023-01-21T07:49:05.240Z,97565.44
2023-01-21T07:54:07.021Z,97560.97
2023-01-21T07:59:10.150Z,97568.41
2023-01-21T08:04:11.962Z,97562.66
2023-01-21T08:09:13.797Z,97563.28
2023-01-21T08:14:15.679Z,97566.88
2023-01-21T08:19:17.343Z,97566.03
2023-01-21T08:24:19.075Z,97564.44
2023-01-21T08:29:20.902Z,97562.47
2023-01-21T08:34:22.547Z,97575.34
2023-01-21T08:39:24.316Z,97571.59
2023-01-21T08:44:26.043Z,97578.53
2023-01-21T08:49:27.667Z,97589.78
2023-01-21T08:54:29.730Z,97579.09
2023-01-21T08:59:31.611Z,97588.38
2023-01-21T09:04:33.328Z,97590.16
2023-01-21T09:09:35.017Z,97586.66
2023-01-21T09:14:36.820Z,97592.94
2023-01-21T09:19:38.430Z,97599.16
2023-01-21T09:24:40.138Z,97597.47
2023-01-21T09:29:41.863Z,97588.38
2023-01-21T09:34:43.568Z,97596.69
2023-01-21T09:39:45.266Z,97595.22
2023-01-21T09:44:51.492Z,97599.56
2023-01-21T09:50:08.492Z,97592.63
2023-01-21T09:55:21.378Z,97589.38
2023-01-21T10:00:49.317Z,97588.97
2023-01-21T10:06:16.535Z,97588.19
2023-01-21T10:12:15.648Z,97587.59
2023-01-21T10:17:35.931Z,97595.00
2023-01-21T10:22:46.314Z,97590.88
2023-01-21T10:27:47.977Z,97586.81
2023-01-21T10:32:52.958Z,97590.28
2023-01-21T10:38:07.016Z,97590.28
2023-01-21T10:43:13.157Z,97585.28
2023-01-21T10:48:36.325Z,97586.53
2023-01-21T10:54:05.992Z,97589.88
2023-01-21T10:59:12.595Z,97584.91
2023-01-21T11:04:22.093Z,97584.81
2023-01-21T11:09:29.582Z,97570.06
2023-01-21T11:14:31.462Z,97568.44
2023-01-21T11:19:33.396Z,97570.59
2023-01-21T11:24:48.617Z,97573.41
2023-01-21T11:29:50.939Z,97571.06
2023-01-21T11:34:59.315Z,97564.69
2023-01-21T11:40:06.416Z,97551.59
2023-01-21T11:45:27.828Z,97553.84
2023-01-21T11:50:34.772Z,97552.00
2023-01-21T11:55:45.171Z,97543.00
2023-01-21T12:00:49.243Z,97542.34
2023-01-21T12:05:54.129Z,97532.47
2023-01-21T12:11:01.948Z,97528.34
2023-01-21T12:16:27.033Z,97528.34
2023-01-21T12:22:02.877Z,97527.94
2023-01-21T12:27:32.465Z,97522.16
2023-01-21T12:32:40.787Z,97518.03
2023-01-21T12:37:48.359Z,97516.41
2023-01-21T12:42:55.977Z,97516.22
2023-01-21T12:48:04.724Z,97513.94
2023-01-21T12:53:09.521Z,97520.63
2023-01-21T12:58:20.890Z,97521.25
2023-01-21T13:03:28.498Z,97522.31
2023-01-21T13:08:40.245Z,97522.91
2023-01-21T13:13:52.876Z,97521.09
2023-01-21T13:18:56.488Z,97526.00
2023-01-21T13:24:16.151Z,97528.28
2023-01-21T13:29:29.764Z,97526.41
2023-01-21T13:34:50.767Z,97539.53
2023-01-21T13:40:11.101Z,97540.16
2023-01-21T13:45:35.504Z,97540.78
2023-01-21T13:50:55.779Z,97537.66
2023-01-21T13:56:12.698Z,97543.25
2023-01-21T14:01:33.552Z,97555.91
2023-01-21T14:06:53.164Z,97558.34
2023-01-21T14:12:43.033Z,97556.69
2023-01-21T14:17:51.573Z,97568.69
2023-01-21T14:23:06.982Z,97561.84
2023-01-21T14:28:21.002Z,97564.16
2023-01-21T14:34:05.038Z,97566.44
2023-01-21T14:39:18.921Z,97568.31
2023-01-21T14:44:39.938Z,97572.88
2023-01-21T14:49:45.323Z,97576.38
2023-01-21T14:54:48.274Z,97575.31
2023-01-21T14:59:52.505Z,97579.91
2023-01-21T15:04:59.985Z,97584.06
2023-01-21T15:10:10.562Z,97572.81
2023-01-21T15:16:01.562Z,97578.78
2023-01-21T15:21:33.378Z,97583.97
2023-01-21T15:26:37.609Z,97583.34
2023-01-21T15:31:44.517Z,97583.59
2023-01-21T15:36:50.416Z,97582.53
2023-01-21T15:42:09.203Z,97591.47
2023-01-21T15:47:20.129Z,97598.97
2023-01-21T15:52:47.724Z,97610.53
2023-01-21T15:58:12.191Z,97609.25
2023-01-21T16:03:32.869Z,97611.31
2023-01-21T16:09:02.000Z,97609.63
2023-01-21T16:14:28.573Z,97613.13
2023-01-21T16:19:36.598Z,97617.69
2023-01-21T16:24:42.737Z,97619.56
2023-01-21T16:29:44.635Z,97620.72
2023-01-21T16:34:47.666Z,97630.34
2023-01-21T16:39:53.994Z,97628.69
2023-01-21T16:44:55.938Z,97635.72
2023-01-21T16:49:57.751Z,97634.47
2023-01-21T16:54:59.595Z,97622.84
2023-01-21T17:00:02.530Z,97634.47
2023-01-21T17:05:05.279Z,97636.50
2023-01-21T17:10:27.397Z,97636.91
2023-01-21T17:15:41.478Z,97633.56
2023-01-21T17:20:48.621Z,97642.66
2023-01-21T17:25:58.610Z,97644.31
2023-01-21T17:31:17.964Z,97649.53
2023-01-21T17:36:31.418Z,97655.50
2023-01-21T17:41:38.478Z,97652.81
2023-01-21T17:46:45.815Z,97660.66
2023-01-21T17:51:48.481Z,97656.66
2023-01-21T17:56:50.130Z,97664.13
2023-01-21T18:01:52.975Z,97670.13
2023-01-21T18:06:55.381Z,97672.81
2023-01-21T18:11:58.039Z,97675.47
2023-01-21T18:16:59.730Z,97679.91
2023-01-21T18:22:03.318Z,97678.84
2023-01-21T18:27:05.046Z,97676.34
2023-01-21T18:32:06.816Z,97683.16
2023-01-21T18:37:14.504Z,97675.28
2023-01-21T18:42:17.925Z,97674.38
2023-01-21T18:47:20.437Z,97676.88
2023-01-21T18:52:22.119Z,97677.72
2023-01-21T18:57:23.821Z,97685.91
2023-01-21T19:02:26.204Z,97683.22
2023-01-21T19:07:28.119Z,97676.09
2023-01-21T19:12:30.118Z,97674.25
2023-01-21T19:17:33.268Z,97671.19
2023-01-21T19:22:35.368Z,97664.13
2023-01-21T19:27:43.796Z,97668.09
2023-01-21T19:32:46.222Z,97660.69
2023-01-21T19:37:49.346Z,97669.63
2023-01-21T19:42:52.613Z,97676.69
2023-01-21T19:47:54.727Z,97668.59
2023-01-21T19:52:56.361Z,97685.66
2023-01-21T19:58:01.782Z,97677.13
2023-01-21T20:03:03.628Z,97685.47
2023-01-21T20:08:06.195Z,97679.50
2023-01-21T20:13:12.892Z,97679.06
2023-01-21T20:18:26.407Z,97687.97
2023-01-21T20:23:28.907Z,97685.91
2023-01-21T20:28:40.381Z,97691.56
2023-01-21T20:33:43.966Z,97688.59
2023-01-21T20:38:46.030Z,97684.63
2023-01-21T20:43:47.707Z,97685.28
2023-01-21T20:48:51.571Z,97676.56
2023-01-21T20:53:53.262Z,97693.97
2023-01-21T20:58:55.422Z,97690.97
2023-01-21T21:03:57.057Z,97687.63
2023-01-21T21:08:58.848Z,97689.25
2023-01-21T21:14:01.790Z,97682.22
2023-01-21T21:19:04.005Z,97681.81
2023-01-21T21:24:06.543Z,97680.47
2023-01-21T21:29:11.609Z,97687.03
2023-01-21T21:34:13.581Z,97691.56
2023-01-21T21:39:19.183Z,97679.50
2023-01-21T21:44:20.937Z,97691.88
2023-01-21T21:49:22.936Z,97692.50
2023-01-21T21:54:24.789Z,97687.97
2023-01-21T21:59:26.511Z,97691.94
2023-01-21T22:04:28.352Z,97689.91
2023-01-21T22:09:30.101Z,97687.44
2023-01-21T22:14:31.881Z,97680.47
2023-01-21T22:19:33.556Z,97681.38
2023-01-21T22:24:35.287Z,97684.16
2023-01-21T22:29:36.938Z,97676.56
2023-01-21T22:34:38.563Z,97674.38
2023-01-21T22:39:40.185Z,97677.22
2023-01-21T22:44:41.847Z,97675.03
2023-01-21T22:49:44.782Z,97672.97
2023-01-21T22:54:48.169Z,97664.75
2023-01-21T22:59:51.129Z,97666.22
2023-01-21T23:04:52.807Z,97663.09
2023-01-21T23:09:54.917Z,97673.09
2023-01-21T23:14:56.833Z,97667.88
2023-01-21T23:19:58.554Z,97668.09
2023-01-21T23:25:00.473Z,97660.25
2023-01-21T23:30:02.191Z,97653.97
2023-01-21T23:35:04.539Z,97660.72
2023-01-21T23:40:06.731Z,97651.25
2023-01-21T23:45:08.930Z,97647.91
2023-01-21T23:50:12.714Z,97644.13
2023-01-21T23:55:14.670Z,97640.78
